createdAt,value
2018-12-06T00:00:45.155Z,6.73
2018-12-06T00:03:08.313Z,6.99
2018-12-06T00:05:31.433Z,6.89
2018-12-06T00:08:06.411Z,7.15
2018-12-06T00:10:29.561Z,6.96
2018-12-06T00:12:52.654Z,7.08
2018-12-06T00:15:24.999Z,7.12
2018-12-06T00:17:48.093Z,7.16
2018-12-06T00:20:11.196Z,6.83
2018-12-06T00:22:34.306Z,7.01
2018-12-06T00:24:57.406Z,7.06
2018-12-06T00:27:20.514Z,6.77
2018-12-06T00:29:47.510Z,6.67
2018-12-06T00:32:10.631Z,6.89
2018-12-06T00:34:33.757Z,6.83
2018-12-06T00:36:56.880Z,6.96
2018-12-06T00:39:19.964Z,6.98
2018-12-06T00:41:43.157Z,6.39
2018-12-06T00:44:06.314Z,6.83
2018-12-06T00:46:29.421Z,6.83
2018-12-06T00:48:52.509Z,6.73
2018-12-06T00:51:15.661Z,6.49
2018-12-06T00:53:38.776Z,6.84
2018-12-06T00:56:01.915Z,6.45
2018-12-06T00:58:25.018Z,6.47
2018-12-06T01:00:48.156Z,6.43
2018-12-06T01:03:11.264Z,6.83
2018-12-06T01:05:34.694Z,6.39
2018-12-06T01:07:57.802Z,6.60
2018-12-06T01:10:20.903Z,6.42
2018-12-06T01:12:44.040Z,6.66
2018-12-06T01:15:07.201Z,6.72
2018-12-06T01:17:30.310Z,6.42
2018-12-06T01:19:53.408Z,6.70
2018-12-06T01:22:16.556Z,6.59
2018-12-06T01:24:39.649Z,6.42
2018-12-06T01:27:02.737Z,6.64
2018-12-06T01:29:25.880Z,6.65
2018-12-06T01:31:49.094Z,6.71
2018-12-06T01:34:12.231Z,6.57
2018-12-06T01:36:35.327Z,6.41
2018-12-06T01:38:58.453Z,6.57
2018-12-06T01:41:21.560Z,6.24
2018-12-06T01:43:44.670Z,6.18
2018-12-06T01:46:07.816Z,6.39
2018-12-06T01:48:31.051Z,6.69
2018-12-06T01:50:54.238Z,6.39
2018-12-06T01:53:17.349Z,6.45
2018-12-06T01:55:40.463Z,6.61
2018-12-06T01:58:03.655Z,6.66
2018-12-06T02:00:26.777Z,6.47
2018-12-06T02:02:49.926Z,6.50
2018-12-06T02:05:13.062Z,5.92
2018-12-06T02:07:36.185Z,5.95
2018-12-06T02:09:59.340Z,6.18
2018-12-06T02:12:22.432Z,6.38
2018-12-06T02:14:45.583Z,6.17
2018-12-06T02:17:08.705Z,6.48
2018-12-06T02:19:31.806Z,6.25
2018-12-06T02:21:54.904Z,6.48
2018-12-06T02:24:18.086Z,6.75
2018-12-06T02:26:41.194Z,6.04
2018-12-06T02:29:04.356Z,6.59
2018-12-06T02:31:27.470Z,6.79
2018-12-06T02:33:50.599Z,5.94
2018-12-06T02:36:13.744Z,6.45
2018-12-06T02:38:36.853Z,6.57
2018-12-06T02:41:00.013Z,6.24
2018-12-06T02:43:23.113Z,6.09
2018-12-06T02:45:46.238Z,6.60
2018-12-06T02:48:09.402Z,6.34
2018-12-06T02:50:32.558Z,6.26
2018-12-06T02:52:55.692Z,6.74
2018-12-06T02:55:18.811Z,6.38
2018-12-06T02:57:41.917Z,6.23
2018-12-06T03:00:05.185Z,6.55
2018-12-06T03:02:28.301Z,6.68
2018-12-06T03:04:51.417Z,6.76
2018-12-06T03:07:14.499Z,6.55
2018-12-06T03:09:37.653Z,6.68
2018-12-06T03:12:00.798Z,6.77
2018-12-06T03:14:23.959Z,6.48
2018-12-06T03:16:47.074Z,6.78
2018-12-06T03:19:10.191Z,6.69
2018-12-06T03:21:33.307Z,6.97
2018-12-06T03:23:56.441Z,7.01
2018-12-06T03:26:19.603Z,6.67
2018-12-06T03:28:42.697Z,6.97
2018-12-06T03:31:05.828Z,7.00
2018-12-06T03:33:28.936Z,7.01
2018-12-06T03:35:52.060Z,6.78
2018-12-06T03:38:15.165Z,6.56
2018-12-06T03:40:38.260Z,6.91
2018-12-06T03:43:01.388Z,6.84
2018-12-06T03:45:24.486Z,6.57
2018-12-06T03:47:47.612Z,6.95
2018-12-06T03:50:10.720Z,6.89
2018-12-06T03:52:33.829Z,6.82
2018-12-06T03:54:56.920Z,6.34
2018-12-06T03:57:20.012Z,6.81
2018-12-06T04:02:12.609Z,6.95
2018-12-06T04:04:35.924Z,6.62
2018-12-06T04:06:59.042Z,6.40
2018-12-06T04:09:22.181Z,6.51
2018-12-06T04:11:45.343Z,6.84
2018-12-06T04:14:08.496Z,6.51
2018-12-06T04:16:31.592Z,6.76
2018-12-06T04:18:54.843Z,7.04
2018-12-06T04:21:17.964Z,6.94
2018-12-06T04:23:41.088Z,7.08
2018-12-06T04:26:04.209Z,6.67
2018-12-06T04:28:27.328Z,6.96
2018-12-06T04:30:50.430Z,7.00
2018-12-06T04:33:13.556Z,6.72
2018-12-06T04:35:36.664Z,6.99
2018-12-06T04:37:59.767Z,7.13
2018-12-06T04:40:22.876Z,7.00
2018-12-06T04:42:45.982Z,6.99
2018-12-06T04:45:10.675Z,6.78
2018-12-06T04:47:33.965Z,6.81
2018-12-06T04:49:57.113Z,6.80
2018-12-06T04:52:20.195Z,7.01
2018-12-06T04:54:43.343Z,6.80
2018-12-06T04:57:06.488Z,6.77
2018-12-06T04:59:29.576Z,6.82
2018-12-06T05:01:52.730Z,6.66
2018-12-06T05:04:15.906Z,7.10
2018-12-06T05:06:39.021Z,6.93
2018-12-06T05:09:02.164Z,6.90
2018-12-06T05:11:25.299Z,6.70
2018-12-06T05:13:48.431Z,6.60
2018-12-06T05:16:11.548Z,6.64
2018-12-06T05:18:34.643Z,6.55
2018-12-06T05:20:57.763Z,6.77
2018-12-06T05:23:20.859Z,6.96
2018-12-06T05:25:44.016Z,6.96
2018-12-06T05:28:07.113Z,6.95
2018-12-06T05:30:30.223Z,7.02
2018-12-06T05:32:53.348Z,7.05
2018-12-06T05:35:16.445Z,6.72
2018-12-06T05:37:39.564Z,7.16
2018-12-06T05:40:02.733Z,6.93
2018-12-06T05:42:25.871Z,7.02
2018-12-06T05:44:48.952Z,7.31
2018-12-06T05:47:12.082Z,7.32
2018-12-06T05:49:35.183Z,7.21
2018-12-06T05:51:58.331Z,7.35
2018-12-06T05:54:21.435Z,7.36
2018-12-06T05:56:44.526Z,7.11
2018-12-06T05:59:07.636Z,7.31
2018-12-06T06:01:30.741Z,7.37
2018-12-06T06:03:54.018Z,7.45
2018-12-06T06:06:17.115Z,7.48
2018-12-06T06:08:40.270Z,7.42
2018-12-06T06:11:03.382Z,7.40
2018-12-06T06:13:26.528Z,7.27
2018-12-06T06:15:49.651Z,6.73
2018-12-06T06:18:12.759Z,7.18
2018-12-06T06:20:35.882Z,7.35
2018-12-06T06:22:58.994Z,7.46
2018-12-06T06:25:22.080Z,7.24
2018-12-06T06:27:45.209Z,7.26
2018-12-06T06:30:08.466Z,7.21
2018-12-06T06:32:31.639Z,7.49
2018-12-06T06:34:54.755Z,7.08
2018-12-06T06:37:17.879Z,6.82
2018-12-06T06:39:40.990Z,7.00
2018-12-06T06:42:04.145Z,7.37
2018-12-06T06:44:27.306Z,7.04
2018-12-06T06:46:50.402Z,7.43
2018-12-06T06:49:14.111Z,6.83
2018-12-06T06:51:37.543Z,6.92
2018-12-06T06:54:00.663Z,6.98
2018-12-06T06:56:23.846Z,7.02
2018-12-06T06:58:46.951Z,6.85
2018-12-06T07:01:10.086Z,6.80
2018-12-06T07:03:33.227Z,6.60
2018-12-06T07:05:56.454Z,6.80
2018-12-06T07:08:19.562Z,7.21
2018-12-06T07:10:42.702Z,6.93
2018-12-06T07:13:05.828Z,6.84
2018-12-06T07:15:28.934Z,7.04
2018-12-06T07:17:52.016Z,6.95
2018-12-06T07:20:15.217Z,6.99
2018-12-06T07:22:38.344Z,6.93
2018-12-06T07:25:01.453Z,6.95
2018-12-06T07:27:24.758Z,6.74
2018-12-06T07:29:48.641Z,7.01
2018-12-06T07:32:11.860Z,6.75
2018-12-06T07:34:34.977Z,6.91
2018-12-06T07:36:58.137Z,7.26
2018-12-06T07:39:21.282Z,6.92
2018-12-06T07:41:44.390Z,7.08
2018-12-06T07:44:07.486Z,7.23
2018-12-06T07:46:30.663Z,7.11
2018-12-06T07:48:53.934Z,7.31
2018-12-06T07:51:17.032Z,7.38
2018-12-06T07:53:40.162Z,7.25
2018-12-06T07:56:03.299Z,7.10
2018-12-06T07:58:26.444Z,7.01
2018-12-06T08:00:49.528Z,7.38
2018-12-06T08:03:12.690Z,7.23
2018-12-06T08:05:35.802Z,7.31
2018-12-06T08:07:58.908Z,7.33
2018-12-06T08:10:22.050Z,7.50
2018-12-06T08:12:45.227Z,7.57
2018-12-06T08:15:08.604Z,7.36
2018-12-06T08:17:31.754Z,7.33
2018-12-06T08:19:54.838Z,7.61
2018-12-06T08:22:17.991Z,7.39
2018-12-06T08:24:41.123Z,7.71
2018-12-06T08:27:04.286Z,7.45
2018-12-06T08:29:27.380Z,7.56
2018-12-06T08:31:50.507Z,7.48
2018-12-06T08:34:13.622Z,7.72
2018-12-06T08:36:36.729Z,7.43
2018-12-06T08:38:59.856Z,7.49
2018-12-06T08:41:22.952Z,7.56
2018-12-06T08:43:46.116Z,7.70
2018-12-06T08:46:09.251Z,7.76
2018-12-06T08:48:32.349Z,7.73
2018-12-06T08:50:55.477Z,7.84
2018-12-06T08:53:18.575Z,7.97
2018-12-06T08:55:41.766Z,7.80
2018-12-06T08:58:04.882Z,7.34
2018-12-06T09:00:28.048Z,7.63
2018-12-06T09:02:51.155Z,7.78
2018-12-06T09:05:14.299Z,8.10
2018-12-06T09:07:37.508Z,7.59
2018-12-06T09:10:00.615Z,7.57
2018-12-06T09:12:23.738Z,7.71
2018-12-06T09:14:46.893Z,7.95
2018-12-06T09:17:10.025Z,7.65
2018-12-06T09:19:33.148Z,7.93
2018-12-06T09:21:56.298Z,7.74
2018-12-06T09:24:19.445Z,7.94
2018-12-06T09:26:42.548Z,7.82
2018-12-06T09:29:05.659Z,7.72
2018-12-06T09:31:29.557Z,7.93
2018-12-06T09:34:01.160Z,7.56
2018-12-06T09:36:24.280Z,7.74
2018-12-06T09:38:47.394Z,7.70
2018-12-06T09:41:10.568Z,7.82
2018-12-06T09:43:33.678Z,7.95
2018-12-06T09:45:56.818Z,8.04
2018-12-06T09:48:19.942Z,7.97
2018-12-06T09:50:43.153Z,7.78
2018-12-06T09:53:06.342Z,8.23
2018-12-06T09:55:29.555Z,7.82
2018-12-06T09:57:52.699Z,7.71
2018-12-06T10:00:16.186Z,8.02
2018-12-06T10:02:39.327Z,7.88
2018-12-06T10:05:02.478Z,8.32
2018-12-06T10:07:27.313Z,8.03
2018-12-06T10:09:50.506Z,8.34
2018-12-06T10:12:13.619Z,8.47
2018-12-06T10:14:36.799Z,8.32
2018-12-06T10:16:59.907Z,8.26
2018-12-06T10:19:23.028Z,8.43
2018-12-06T10:21:46.177Z,8.31
2018-12-06T10:24:09.325Z,8.41
2018-12-06T10:26:32.508Z,8.48
2018-12-06T10:28:55.638Z,8.88
2018-12-06T10:31:18.803Z,8.54
2018-12-06T10:33:44.803Z,8.72
2018-12-06T10:36:07.988Z,8.66
2018-12-06T10:38:32.628Z,8.80
2018-12-06T10:40:55.750Z,8.94
2018-12-06T10:43:18.868Z,8.58
2018-12-06T10:45:42.021Z,8.90
2018-12-06T10:48:05.236Z,8.86
2018-12-06T10:50:28.338Z,8.37
2018-12-06T10:52:52.963Z,8.61
2018-12-06T10:55:16.093Z,8.71
2018-12-06T10:57:39.190Z,8.65
2018-12-06T11:00:02.368Z,8.62
2018-12-06T11:02:29.187Z,8.62
2018-12-06T11:04:52.344Z,8.68
2018-12-06T11:07:15.486Z,8.55
2018-12-06T11:09:38.594Z,8.59
2018-12-06T11:12:01.773Z,8.62
2018-12-06T11:14:25.678Z,8.64
2018-12-06T11:16:48.809Z,8.67
2018-12-06T11:19:12.784Z,8.81
2018-12-06T11:21:35.888Z,8.79
2018-12-06T11:23:59.050Z,9.01
2018-12-06T11:26:22.128Z,9.09
2018-12-06T11:28:45.220Z,8.81
2018-12-06T11:31:08.411Z,9.46
2018-12-06T11:33:31.544Z,9.44
2018-12-06T11:35:54.661Z,9.46
2018-12-06T11:38:17.832Z,9.02
2018-12-06T11:40:40.970Z,9.28
2018-12-06T11:43:05.718Z,9.22
2018-12-06T11:45:28.891Z,8.84
2018-12-06T11:47:52.010Z,9.20
2018-12-06T11:50:15.117Z,8.97
2018-12-06T11:52:38.275Z,9.16
2018-12-06T11:55:01.368Z,9.52
2018-12-06T11:57:24.483Z,9.25
2018-12-06T11:59:47.621Z,9.54
2018-12-06T12:02:10.800Z,9.44
2018-12-06T12:04:33.905Z,9.72
2018-12-06T12:06:57.042Z,9.42
2018-12-06T12:09:20.157Z,9.13
2018-12-06T12:11:43.260Z,9.54
2018-12-06T12:14:06.427Z,9.45
2018-12-06T12:16:29.572Z,9.37
2018-12-06T12:18:52.703Z,9.25
2018-12-06T12:21:15.855Z,9.53
2018-12-06T12:23:38.985Z,9.70
2018-12-06T12:26:02.107Z,9.67
2018-12-06T12:28:25.254Z,9.30
2018-12-06T12:30:48.414Z,9.39
2018-12-06T12:33:11.532Z,9.42
2018-12-06T12:35:34.666Z,8.92
2018-12-06T12:37:57.792Z,9.69
2018-12-06T12:40:20.916Z,9.53
2018-12-06T12:42:44.026Z,9.36
2018-12-06T12:45:07.556Z,9.63
2018-12-06T12:47:30.811Z,9.61
2018-12-06T12:49:53.900Z,9.33
2018-12-06T12:52:17.046Z,9.62
2018-12-06T12:54:40.148Z,9.32
2018-12-06T12:57:03.344Z,9.49
2018-12-06T12:59:26.455Z,9.56
2018-12-06T13:01:49.614Z,9.64
2018-12-06T13:04:13.213Z,9.44
2018-12-06T13:06:36.335Z,9.63
2018-12-06T13:08:59.473Z,9.62
2018-12-06T13:11:22.598Z,9.94
2018-12-06T13:13:45.693Z,9.62
2018-12-06T13:16:08.799Z,9.52
2018-12-06T13:18:31.924Z,9.66
2018-12-06T13:20:55.090Z,9.76
2018-12-06T13:23:18.195Z,9.57
2018-12-06T13:25:41.345Z,9.69
2018-12-06T13:28:04.562Z,9.67
2018-12-06T13:30:27.748Z,9.73
2018-12-06T13:32:51.065Z,9.70
2018-12-06T13:35:14.219Z,9.85
2018-12-06T13:37:37.465Z,9.81
2018-12-06T13:40:00.593Z,9.68
2018-12-06T13:42:24.609Z,9.85
2018-12-06T13:44:47.776Z,9.67
2018-12-06T13:47:10.954Z,9.96
2018-12-06T13:49:34.136Z,10.05
2018-12-06T13:51:57.300Z,9.85
2018-12-06T13:54:26.725Z,9.77
2018-12-06T13:56:45.517Z,9.75
2018-12-06T13:59:08.622Z,9.80
2018-12-06T14:01:31.778Z,9.87
2018-12-06T14:03:54.890Z,10.01
2018-12-06T14:06:18.010Z,9.74
2018-12-06T14:08:41.117Z,9.88
2018-12-06T14:11:04.280Z,10.00
2018-12-06T14:13:27.464Z,10.04
2018-12-06T14:15:50.554Z,10.08
2018-12-06T14:18:13.682Z,9.96
2018-12-06T14:20:36.821Z,10.25
2018-12-06T14:22:59.981Z,10.16
2018-12-06T14:25:23.162Z,10.16
2018-12-06T14:27:46.340Z,10.36
2018-12-06T14:30:09.599Z,10.11
2018-12-06T14:32:32.803Z,10.17
2018-12-06T14:34:55.930Z,10.18
2018-12-06T14:37:19.104Z,9.91
2018-12-06T14:39:42.235Z,10.34
2018-12-06T14:42:05.549Z,10.52
2018-12-06T14:44:28.706Z,10.35
2018-12-06T14:46:51.848Z,10.30
2018-12-06T14:49:14.974Z,10.42
2018-12-06T14:51:38.155Z,10.61
2018-12-06T14:54:01.356Z,10.33
2018-12-06T14:56:24.523Z,10.49
2018-12-06T14:58:47.683Z,10.51
2018-12-06T15:01:10.795Z,10.18
2018-12-06T15:03:33.912Z,10.44
2018-12-06T15:05:57.043Z,10.65
2018-12-06T15:08:20.167Z,10.43
2018-12-06T15:10:43.296Z,10.31
2018-12-06T15:13:06.420Z,10.38
2018-12-06T15:15:29.528Z,10.21
2018-12-06T15:17:53.538Z,10.39
2018-12-06T15:20:16.666Z,10.11
2018-12-06T15:22:39.866Z,10.40
2018-12-06T15:25:03.035Z,10.33
2018-12-06T15:27:26.596Z,10.33
2018-12-06T15:29:50.187Z,10.37
2018-12-06T15:32:13.816Z,10.29
2018-12-06T15:34:37.010Z,10.56
2018-12-06T15:37:00.141Z,10.40
2018-12-06T15:39:23.278Z,10.28
2018-12-06T15:41:46.434Z,10.45
2018-12-06T15:44:09.567Z,10.64
2018-12-06T15:46:32.743Z,10.68
2018-12-06T15:48:55.883Z,11.09
2018-12-06T15:51:19.066Z,10.64
2018-12-06T15:53:42.263Z,10.55
2018-12-06T15:56:05.697Z,10.86
2018-12-06T15:58:28.851Z,10.94
2018-12-06T16:00:52.006Z,10.94
2018-12-06T16:03:15.222Z,10.88
2018-12-06T16:05:38.336Z,10.43
2018-12-06T16:08:01.465Z,10.88
2018-12-06T16:10:24.605Z,10.85
2018-12-06T16:12:47.761Z,10.70
2018-12-06T16:15:11.016Z,10.75
2018-12-06T16:17:34.223Z,10.76
2018-12-06T16:19:57.327Z,10.80
2018-12-06T16:22:20.520Z,10.85
2018-12-06T16:24:43.645Z,10.70
2018-12-06T16:27:07.654Z,10.86
2018-12-06T16:29:30.797Z,10.83
2018-12-06T16:31:53.925Z,10.78
2018-12-06T16:34:17.076Z,10.94
2018-12-06T16:36:40.293Z,10.84
2018-12-06T16:39:05.375Z,11.01
2018-12-06T16:41:28.521Z,10.80
2018-12-06T16:43:51.652Z,10.82
2018-12-06T16:46:14.811Z,10.94
2018-12-06T16:48:38.391Z,10.98
2018-12-06T16:51:01.524Z,10.76
2018-12-06T16:53:24.659Z,10.76
2018-12-06T16:55:47.831Z,10.95
2018-12-06T16:58:10.977Z,10.92
2018-12-06T17:00:34.113Z,11.04
2018-12-06T17:02:57.252Z,10.97
2018-12-06T17:06:10.341Z,10.86
2018-12-06T17:08:33.481Z,11.24
2018-12-06T17:10:56.625Z,11.05
2018-12-06T17:13:19.728Z,11.00
2018-12-06T17:15:42.874Z,11.07
2018-12-06T17:18:06.051Z,10.92
2018-12-06T17:20:29.775Z,11.09
2018-12-06T17:22:52.957Z,11.07
2018-12-06T17:25:16.102Z,11.15
2018-12-06T17:27:39.248Z,11.03
2018-12-06T17:30:02.507Z,11.10
2018-12-06T17:32:25.776Z,11.13
2018-12-06T17:34:48.956Z,11.15
2018-12-06T17:37:12.082Z,10.93
2018-12-06T17:39:36.701Z,11.03
2018-12-06T17:42:00.137Z,11.28
2018-12-06T17:44:23.255Z,11.00
2018-12-06T17:46:46.392Z,11.15
2018-12-06T17:49:09.520Z,11.35
2018-12-06T17:51:32.671Z,11.19
2018-12-06T17:53:55.793Z,11.29
2018-12-06T17:56:18.997Z,11.34
2018-12-06T17:58:42.117Z,11.29
2018-12-06T18:01:05.374Z,11.31
2018-12-06T18:03:28.557Z,11.09
2018-12-06T18:05:51.673Z,11.38
2018-12-06T18:08:14.849Z,11.26
2018-12-06T18:10:38.613Z,11.21
2018-12-06T18:13:01.738Z,11.23
2018-12-06T18:15:25.378Z,11.15
2018-12-06T18:17:48.514Z,11.22
2018-12-06T18:20:11.735Z,11.34
2018-12-06T18:22:34.860Z,11.16
2018-12-06T18:24:57.986Z,11.26
2018-12-06T18:27:21.152Z,11.27
2018-12-06T18:29:44.275Z,11.36
2018-12-06T18:32:07.412Z,11.46
2018-12-06T18:34:30.676Z,11.13
2018-12-06T18:36:53.797Z,11.45
2018-12-06T18:39:16.917Z,11.34
2018-12-06T18:41:40.090Z,11.46
2018-12-06T18:44:03.254Z,11.35
2018-12-06T18:46:26.502Z,11.36
2018-12-06T18:48:49.623Z,11.36
2018-12-06T18:51:12.737Z,11.47
2018-12-06T18:53:36.037Z,11.38
2018-12-06T18:55:59.232Z,11.48
2018-12-06T18:58:22.383Z,11.66
2018-12-06T19:00:45.512Z,11.60
2018-12-06T19:03:08.633Z,11.90
2018-12-06T19:05:31.796Z,11.57
2018-12-06T19:07:55.201Z,11.72
2018-12-06T19:10:18.325Z,11.50
2018-12-06T19:12:41.446Z,11.66
2018-12-06T19:15:04.780Z,11.54
2018-12-06T19:17:27.955Z,11.85
2018-12-06T19:19:51.721Z,11.61
2018-12-06T19:22:14.875Z,11.64
2018-12-06T19:24:38.068Z,11.79
2018-12-06T19:27:01.261Z,11.71
2018-12-06T19:29:25.329Z,11.45
2018-12-06T19:31:48.463Z,11.99
2018-12-06T19:34:11.603Z,12.03
2018-12-06T19:36:34.764Z,11.80
2018-12-06T19:38:58.804Z,11.77
2018-12-06T19:41:21.936Z,11.69
2018-12-06T19:43:45.126Z,11.82
2018-12-06T19:46:08.230Z,11.57
2018-12-06T19:48:31.387Z,11.64
2018-12-06T19:50:54.519Z,11.62
2018-12-06T19:53:17.637Z,11.50
2018-12-06T19:55:42.864Z,11.69
2018-12-06T19:58:06.008Z,11.54
2018-12-06T20:00:29.208Z,11.80
2018-12-06T20:02:52.335Z,12.03
2018-12-06T20:05:15.581Z,11.75
2018-12-06T20:07:38.764Z,11.61
2018-12-06T20:10:01.932Z,11.75
2018-12-06T20:12:25.067Z,11.71
2018-12-06T20:14:48.223Z,11.74
2018-12-06T20:17:11.390Z,11.79
2018-12-06T20:19:35.278Z,11.49
2018-12-06T20:21:58.415Z,11.72
2018-12-06T20:24:21.569Z,11.90
2018-12-06T20:26:44.725Z,11.60
2018-12-06T20:29:07.920Z,12.06
2018-12-06T20:31:31.116Z,11.89
2018-12-06T20:33:54.293Z,11.85
2018-12-06T20:36:17.420Z,11.62
2018-12-06T20:38:40.537Z,11.73
2018-12-06T20:41:03.739Z,11.78
2018-12-06T20:43:26.841Z,11.75
2018-12-06T20:45:50.007Z,12.14
2018-12-06T20:48:13.135Z,11.88
2018-12-06T20:50:36.266Z,11.79
2018-12-06T20:52:59.408Z,11.98
2018-12-06T20:55:22.530Z,11.98
2018-12-06T20:57:45.676Z,11.83
2018-12-06T21:00:08.938Z,11.90
2018-12-06T21:02:32.093Z,11.77
2018-12-06T21:04:55.224Z,11.75
2018-12-06T21:07:18.438Z,11.71
2018-12-06T21:09:41.699Z,11.81
2018-12-06T21:12:04.878Z,11.66
2018-12-06T21:14:27.999Z,11.93
2018-12-06T21:16:51.171Z,11.96
2018-12-06T21:19:14.389Z,12.01
2018-12-06T21:21:37.620Z,11.89
2018-12-06T21:24:00.762Z,11.70
2018-12-06T21:26:23.944Z,11.79
2018-12-06T21:28:47.133Z,11.60
2018-12-06T21:31:10.277Z,11.67
2018-12-06T21:33:33.522Z,11.66
2018-12-06T21:35:56.629Z,11.55
2018-12-06T21:38:19.764Z,11.79
2018-12-06T21:40:42.946Z,11.59
2018-12-06T21:43:06.057Z,11.49
2018-12-06T21:45:29.291Z,11.62
2018-12-06T21:47:52.388Z,11.45
2018-12-06T21:50:15.509Z,11.62
2018-12-06T21:52:38.642Z,11.40
2018-12-06T21:55:01.811Z,11.90
2018-12-06T21:57:24.948Z,11.65
2018-12-06T21:59:48.101Z,11.59
2018-12-06T22:02:23.294Z,11.78
2018-12-06T22:04:46.493Z,11.57
2018-12-06T22:07:09.599Z,11.93
2018-12-06T22:09:32.769Z,11.84
2018-12-06T22:11:55.898Z,11.74
2018-12-06T22:14:18.999Z,11.71
2018-12-06T22:16:42.376Z,11.78
2018-12-06T22:19:05.457Z,11.57
2018-12-06T22:21:28.580Z,11.64
2018-12-06T22:23:51.757Z,11.83
2018-12-06T22:26:14.946Z,11.65
2018-12-06T22:28:38.203Z,11.69
2018-12-06T22:31:01.360Z,11.77
2018-12-06T22:33:24.513Z,11.71
2018-12-06T22:35:47.654Z,11.62
2018-12-06T22:38:10.764Z,11.90
2018-12-06T22:40:34.011Z,11.56
2018-12-06T22:42:57.123Z,11.53
2018-12-06T22:48:15.771Z,11.62
2018-12-06T22:50:39.096Z,11.44
2018-12-06T22:53:02.207Z,11.72
2018-12-06T22:55:25.328Z,11.73
2018-12-06T22:57:48.440Z,11.61
2018-12-06T23:00:14.220Z,11.56
2018-12-06T23:02:37.486Z,11.68
2018-12-06T23:05:00.591Z,11.93
2018-12-06T23:07:23.702Z,11.73
2018-12-06T23:09:46.861Z,11.97
2018-12-06T23:12:10.027Z,11.91
2018-12-06T23:14:33.160Z,11.76
2018-12-06T23:16:56.272Z,11.86
2018-12-06T23:19:19.739Z,11.79
2018-12-06T23:21:42.911Z,11.66
2018-12-06T23:24:06.009Z,11.67
2018-12-06T23:26:29.448Z,11.82
2018-12-06T23:28:52.576Z,11.92
2018-12-06T23:31:15.711Z,11.92
2018-12-06T23:33:38.850Z,11.85
2018-12-06T23:36:02.005Z,12.06
2018-12-06T23:38:25.463Z,11.88
2018-12-06T23:40:48.568Z,11.91
2018-12-06T23:43:11.696Z,12.11
2018-12-06T23:45:34.870Z,11.86
2018-12-06T23:47:58.001Z,11.84
2018-12-06T23:50:21.641Z,12.03
2018-12-06T23:52:44.828Z,12.26
2018-12-06T23:55:08.006Z,12.02
2018-12-06T23:57:31.180Z,12.02
2018-12-06T23:59:54.339Z,11.95
